航空気象通報

ウインドサーファーのための航空気象通報による風予報です。

4/24-25の航空気象通報(国内、海外)

2008年04月24日 23時49分40秒 | TAF
羽田空港
TAF RJTT 240837Z 241812 36010KT 9999 FEW030 SCT050
BECMG 0003 08012KT
日本時間25日03-09時:360度から10ノットの風
09-12時:風が変化
12-21時:080度から12ノットの風

那覇空港
TAF ROAH 240840Z 241812 03010KT 9999 SCT020
日本時間25日03-21時:030度から10ノットの風


マウイのカフルイ空港
PHOG 241133Z 241212 16004KT P6SM SCT200
FM1900 01010KT P6SM SCT060
FM0600 13005KT P6SM FEW060
ハワイ時間24日02-09時:160度から4ノットの風
09-20時:010度から10ノットの風
20時-25日02時:130度から5ノットの風


サイパン空港
PGSN 241226Z 241212 08011KT P6SM VCSH FEW020
マリアナ時間24日22時-25日22時:080度から11ノットの風

コメント
この記事をはてなブックマークに追加